Union Manta — ORKJ — position and weather

sailwx.info

Track history (hours):
 
Tides and Currents Weather Stations Pressure Air Temp Water Temp Dewpoint Dewpoint Depression Visibility Wind Speed Wind Dir Waves Ship Positions

Union Manta

Last reported at 2016-May-04 18:34 UTC. Time now 2016-May-04 19:21 UTC.
Position N 52°51' E 001°38'.

Length 75 m; draft 6.3 m.

Type: Tug. MMSI: 205340000.

Date/timePositionNaut miles runAvg speedWind from/ knotsBaromVisibWave heightAir tempDewpointWater temp
2016-May-04 18:34N 52°51' E 001°38'8 8.2
2016-May-04 17:33N 52°44' E 001°45'7 7.2
2016-May-04 16:34N 52°37' E 001°46'1 0.9
2016-May-04 15:34N 52°36' E 001°45'1 1.2
2016-May-04 14:31N 52°35' E 001°45'0 0.0
2016-May-04 13:31N 52°35' E 001°45'0 0.0
2016-May-04 12:31N 52°35' E 001°45'0 0.0
2016-May-04 11:31N 52°35' E 001°45'0 0.0
2016-May-04 10:31N 52°35' E 001°45'0 0.0
2016-May-04 09:31N 52°35' E 001°45'0 0.0
2016-May-04 08:31N 52°35' E 001°45'0 0.0
2016-May-04 07:31N 52°35' E 001°45'0 0.0
2016-May-04 06:34N 52°35' E 001°45'1 0.7
2016-May-04 05:33N 52°35' E 001°45'0 0.1
2016-May-04 04:31N 52°35' E 001°46'0 0.1
2016-May-04 03:31N 52°35' E 001°46'0 0.1
2016-May-04 02:31N 52°35' E 001°46'0 0.0
2016-May-04 01:31N 52°35' E 001°46'0 0.0
2016-May-04 00:31N 52°35' E 001°46'0 0.0
2016-May-03 23:31N 52°35' E 001°46'0 0.0
2016-May-03 22:31N 52°35' E 001°46'0 0.0
2016-May-03 21:31N 52°35' E 001°46'0 0.1
2016-May-03 20:33N 52°35' E 001°46'9 9.2
2016-May-03 19:32N 52°45' E 001°44'1211.7
2016-May-03 18:33N 52°55' E 001°35'1312.8
2016-May-03 17:33N 53°06' E 001°27'8 6.5
2016-May-03 16:17N 53°14' E 001°22'0 0.1
2016-May-03 13:33N 53°14' E 001°22'0 0.2
2016-May-03 12:32N 53°14' E 001°21'1 1.2
2016-May-03 11:25N 53°13' E 001°23'0 0.0
2016-May-03 00:05N 53°13' E 001°23'0 0.1
2016-May-02 22:17N 53°13' E 001°23'0 0.0
2016-May-02 21:33N 53°13' E 001°23'1 1.0
2016-May-02 20:33N 53°14' E 001°22'0 0.1
2016-May-02 14:33N 53°14' E 001°22'1 0.8
2016-May-02 13:32N 53°15' E 001°21'0 0.2
2016-May-02 11:30N 53°14' E 001°22'0 0.5
2016-May-02 10:33N 53°15' E 001°21'0 0.1
2016-May-02 09:32N 53°15' E 001°21'0 0.3
2016-May-02 08:17N 53°14' E 001°22'1 0.1
2016-May-02 00:26N 53°13' E 001°23'0 0.0
2016-May-01 23:26N 53°13' E 001°23'0 0.0
2016-May-01 17:32N 53°13' E 001°23'0 0.0
2016-May-01 16:32N 53°13' E 001°23'0 0.1
2016-May-01 15:32N 53°13' E 001°23'0 0.0
2016-May-01 14:26N 53°13' E 001°23'0 0.0
2016-May-01 13:32N 53°13' E 001°23'0 0.0
2016-May-01 12:32N 53°13' E 001°23'1 1.0
2016-May-01 11:30N 53°14' E 001°23'0 0.0
2016-May-01 10:29N 53°14' E 001°23'0 0.4
2016-May-01 09:31N 53°14' E 001°22'0 0.2
2016-May-01 08:33N 53°15' E 001°22'0 0.5
2016-May-01 07:33N 53°14' E 001°22'0 0.5
2016-May-01 06:33N 53°15' E 001°22'1 0.6
2016-May-01 05:34N 53°15' E 001°21'0 0.4
2016-May-01 04:33N 53°15' E 001°21'0 0.3
2016-May-01 03:30N 53°14' E 001°22'1 0.3
2016-Apr-30 22:29N 53°13' E 001°23'0 0.0
2016-Apr-30 20:29N 53°13' E 001°23'0 0.0
2016-Apr-30 17:17N 53°13' E 001°23'0 0.0
2016-Apr-30 16:32N 53°13' E 001°23'0 0.0
2016-Apr-30 08:29N 53°13' E 001°23'0 0.0
2016-Apr-29 19:11N 53°13' E 001°23'0 0.1
2016-Apr-29 18:23N 53°13' E 001°23'0 0.0
2016-Apr-29 17:23N 53°13' E 001°23'0 0.0
2016-Apr-29 16:23N 53°13' E 001°23'0 0.0
2016-Apr-29 15:11N 53°13' E 001°23'0 0.0
2016-Apr-29 08:23N 53°13' E 001°23'0 0.0
2016-Apr-28 17:16N 53°13' E 001°23'2 2.1
2016-Apr-28 16:24N 53°15' E 001°21'0 0.3
2016-Apr-28 15:31N 53°15' E 001°22'0 0.3
2016-Apr-28 14:25N 53°15' E 001°22'0 0.4
2016-Apr-28 13:33N 53°15' E 001°21'0 0.4
2016-Apr-28 12:32N 53°15' E 001°22'0 0.5
2016-Apr-28 11:33N 53°15' E 001°23'1 0.1
2016-Apr-27 20:06N 53°14' E 001°21'1 0.9
2016-Apr-27 19:26N 53°14' E 001°21'1 1.1
2016-Apr-27 18:28N 53°15' E 001°22'0 0.3
2016-Apr-27 17:18N 53°15' E 001°22'0 0.4
2016-Apr-27 16:25N 53°15' E 001°22'0 0.1
2016-Apr-27 15:22N 53°15' E 001°22'0 0.1
2016-Apr-27 14:24N 53°15' E 001°22'0 0.1
2016-Apr-27 13:33N 53°15' E 001°22'4 0.7
2016-Apr-27 07:18N 53°11' E 001°21'1 1.3
2016-Apr-27 06:33N 53°12' E 001°21'2 0.3
2016-Apr-26 23:33N 53°10' E 001°23'1 0.2
2016-Apr-26 16:29N 53°09' E 001°23'0 0.0
2016-Apr-26 15:33N 53°09' E 001°23'2 1.7
2016-Apr-26 14:25N 53°10' E 001°21'2 2.1
2016-Apr-26 13:25N 53°12' E 001°20'5 0.6
2016-Apr-26 04:33N 53°08' E 001°25'3 3.0
2016-Apr-26 03:33N 53°07' E 001°29'2 2.0
2016-Apr-26 02:34N 53°07' E 001°32'3 3.1
2016-Apr-26 01:34N 53°10' E 001°33'3 3.3
2016-Apr-26 00:33N 53°13' E 001°32'5 4.0
2016-Apr-25 23:22N 53°17' E 001°27'  
Track history (hours):
 
Tides and Currents Weather Stations Pressure Air Temp Water Temp Dewpoint Dewpoint Depression Visibility Wind Speed Wind Dir Waves Ship Positions

Union Manta

Last reported at 2016-May-04 18:34 UTC. Time now 2016-May-04 19:21 UTC.
Position N 52°51' E 001°38'.

Length 75 m; draft 6.3 m.

Type: Tug. MMSI: 205340000.

Date/timePositionNaut miles runAvg speedWind from/ knotsBaromVisibWave heightAir tempDewpointWater temp
2016-May-04 18:34N 52°51' E 001°38'8 8.2
2016-May-04 17:33N 52°44' E 001°45'7 7.2
2016-May-04 16:34N 52°37' E 001°46'1 0.9
2016-May-04 15:34N 52°36' E 001°45'1 1.2
2016-May-04 14:31N 52°35' E 001°45'0 0.0
2016-May-04 13:31N 52°35' E 001°45'0 0.0
2016-May-04 12:31N 52°35' E 001°45'0 0.0
2016-May-04 11:31N 52°35' E 001°45'0 0.0
2016-May-04 10:31N 52°35' E 001°45'0 0.0
2016-May-04 09:31N 52°35' E 001°45'0 0.0
2016-May-04 08:31N 52°35' E 001°45'0 0.0
2016-May-04 07:31N 52°35' E 001°45'0 0.0
2016-May-04 06:34N 52°35' E 001°45'1 0.7
2016-May-04 05:33N 52°35' E 001°45'0 0.1
2016-May-04 04:31N 52°35' E 001°46'0 0.1
2016-May-04 03:31N 52°35' E 001°46'0 0.1
2016-May-04 02:31N 52°35' E 001°46'0 0.0
2016-May-04 01:31N 52°35' E 001°46'0 0.0
2016-May-04 00:31N 52°35' E 001°46'0 0.0
2016-May-03 23:31N 52°35' E 001°46'0 0.0
2016-May-03 22:31N 52°35' E 001°46'0 0.0
2016-May-03 21:31N 52°35' E 001°46'0 0.1
2016-May-03 20:33N 52°35' E 001°46'9 9.2
2016-May-03 19:32N 52°45' E 001°44'1211.7
2016-May-03 18:33N 52°55' E 001°35'1312.8
2016-May-03 17:33N 53°06' E 001°27'8 6.5
2016-May-03 16:17N 53°14' E 001°22'0 0.1
2016-May-03 13:33N 53°14' E 001°22'0 0.2
2016-May-03 12:32N 53°14' E 001°21'1 1.2
2016-May-03 11:25N 53°13' E 001°23'0 0.0
2016-May-03 00:05N 53°13' E 001°23'0 0.1
2016-May-02 22:17N 53°13' E 001°23'0 0.0
2016-May-02 21:33N 53°13' E 001°23'1 1.0
2016-May-02 20:33N 53°14' E 001°22'0 0.1
2016-May-02 14:33N 53°14' E 001°22'1 0.8
2016-May-02 13:32N 53°15' E 001°21'0 0.2
2016-May-02 11:30N 53°14' E 001°22'0 0.5
2016-May-02 10:33N 53°15' E 001°21'0 0.1
2016-May-02 09:32N 53°15' E 001°21'0 0.3
2016-May-02 08:17N 53°14' E 001°22'1 0.1
2016-May-02 00:26N 53°13' E 001°23'0 0.0
2016-May-01 23:26N 53°13' E 001°23'0 0.0
2016-May-01 17:32N 53°13' E 001°23'0 0.0
2016-May-01 16:32N 53°13' E 001°23'0 0.1
2016-May-01 15:32N 53°13' E 001°23'0 0.0
2016-May-01 14:26N 53°13' E 001°23'0 0.0
2016-May-01 13:32N 53°13' E 001°23'0 0.0
2016-May-01 12:32N 53°13' E 001°23'1 1.0
2016-May-01 11:30N 53°14' E 001°23'0 0.0
2016-May-01 10:29N 53°14' E 001°23'0 0.4
2016-May-01 09:31N 53°14' E 001°22'0 0.2
2016-May-01 08:33N 53°15' E 001°22'0 0.5
2016-May-01 07:33N 53°14' E 001°22'0 0.5
2016-May-01 06:33N 53°15' E 001°22'1 0.6
2016-May-01 05:34N 53°15' E 001°21'0 0.4
2016-May-01 04:33N 53°15' E 001°21'0 0.3
2016-May-01 03:30N 53°14' E 001°22'1 0.3
2016-Apr-30 22:29N 53°13' E 001°23'0 0.0
2016-Apr-30 20:29N 53°13' E 001°23'0 0.0
2016-Apr-30 17:17N 53°13' E 001°23'0 0.0
2016-Apr-30 16:32N 53°13' E 001°23'0 0.0
2016-Apr-30 08:29N 53°13' E 001°23'0 0.0
2016-Apr-29 19:11N 53°13' E 001°23'0 0.1
2016-Apr-29 18:23N 53°13' E 001°23'0 0.0
2016-Apr-29 17:23N 53°13' E 001°23'0 0.0
2016-Apr-29 16:23N 53°13' E 001°23'0 0.0
2016-Apr-29 15:11N 53°13' E 001°23'0 0.0
2016-Apr-29 08:23N 53°13' E 001°23'0 0.0
2016-Apr-28 17:16N 53°13' E 001°23'2 2.1
2016-Apr-28 16:24N 53°15' E 001°21'0 0.3
2016-Apr-28 15:31N 53°15' E 001°22'0 0.3
2016-Apr-28 14:25N 53°15' E 001°22'0 0.4
2016-Apr-28 13:33N 53°15' E 001°21'0 0.4
2016-Apr-28 12:32N 53°15' E 001°22'0 0.5
2016-Apr-28 11:33N 53°15' E 001°23'1 0.1
2016-Apr-27 20:06N 53°14' E 001°21'1 0.9
2016-Apr-27 19:26N 53°14' E 001°21'1 1.1
2016-Apr-27 18:28N 53°15' E 001°22'0 0.3
2016-Apr-27 17:18N 53°15' E 001°22'0 0.4
2016-Apr-27 16:25N 53°15' E 001°22'0 0.1
2016-Apr-27 15:22N 53°15' E 001°22'0 0.1
2016-Apr-27 14:24N 53°15' E 001°22'0 0.1
2016-Apr-27 13:33N 53°15' E 001°22'4 0.7
2016-Apr-27 07:18N 53°11' E 001°21'1 1.3
2016-Apr-27 06:33N 53°12' E 001°21'2 0.3
2016-Apr-26 23:33N 53°10' E 001°23'1 0.2
2016-Apr-26 16:29N 53°09' E 001°23'0 0.0
2016-Apr-26 15:33N 53°09' E 001°23'2 1.7
2016-Apr-26 14:25N 53°10' E 001°21'2 2.1
2016-Apr-26 13:25N 53°12' E 001°20'5 0.6
2016-Apr-26 04:33N 53°08' E 001°25'3 3.0
2016-Apr-26 03:33N 53°07' E 001°29'2 2.0
2016-Apr-26 02:34N 53°07' E 001°32'3 3.1
2016-Apr-26 01:34N 53°10' E 001°33'3 3.3
2016-Apr-26 00:33N 53°13' E 001°32'5 4.0
2016-Apr-25 23:22N 53°17' E 001°27'  

Dump ship's entire track history